sensor_id;sensor_type;location;lat;lon;timestamp;P1;durP1;ratioP1;P2;durP2;ratioP2
58412;SDS011;44209;52.952;6.790;2024-03-02T00:02:14;5.70;;;4.87;;
58412;SDS011;44209;52.952;6.790;2024-03-02T00:04:40;6.07;;;4.60;;
58412;SDS011;44209;52.952;6.790;2024-03-02T00:07:09;6.13;;;4.60;;
58412;SDS011;44209;52.952;6.790;2024-03-02T00:09:38;5.80;;;4.57;;
58412;SDS011;44209;52.952;6.790;2024-03-02T00:12:04;5.37;;;4.50;;
58412;SDS011;44209;52.952;6.790;2024-03-02T00:14:30;5.90;;;4.73;;
58412;SDS011;44209;52.952;6.790;2024-03-02T00:16:56;6.43;;;4.57;;
58412;SDS011;44209;52.952;6.790;2024-03-02T00:19:22;6.03;;;4.67;;
58412;SDS011;44209;52.952;6.790;2024-03-02T00:21:48;8.23;;;4.70;;
58412;SDS011;44209;52.952;6.790;2024-03-02T00:24:18;5.23;;;4.60;;
58412;SDS011;44209;52.952;6.790;2024-03-02T00:26:45;5.07;;;4.10;;
58412;SDS011;44209;52.952;6.790;2024-03-02T00:29:11;5.00;;;4.50;;
58412;SDS011;44209;52.952;6.790;2024-03-02T00:31:41;6.30;;;5.00;;
58412;SDS011;44209;52.952;6.790;2024-03-02T00:34:07;5.97;;;4.20;;
58412;SDS011;44209;52.952;6.790;2024-03-02T00:36:33;6.07;;;4.40;;
58412;SDS011;44209;52.952;6.790;2024-03-02T00:38:58;6.87;;;4.20;;
58412;SDS011;44209;52.952;6.790;2024-03-02T00:41:29;5.57;;;4.17;;
58412;SDS011;44209;52.952;6.790;2024-03-02T00:43:59;5.57;;;4.33;;
58412;SDS011;44209;52.952;6.790;2024-03-02T00:46:34;5.63;;;4.47;;
58412;SDS011;44209;52.952;6.790;2024-03-02T00:49:05;5.03;;;4.33;;
58412;SDS011;44209;52.952;6.790;2024-03-02T00:51:37;4.80;;;4.03;;
58412;SDS011;44209;52.952;6.790;2024-03-02T00:54:04;5.47;;;4.50;;
58412;SDS011;44209;52.952;6.790;2024-03-02T00:56:31;7.30;;;4.77;;
58412;SDS011;44209;52.952;6.790;2024-03-02T00:58:57;6.57;;;4.73;;
58412;SDS011;44209;52.952;6.790;2024-03-02T01:01:23;5.87;;;4.43;;
58412;SDS011;44209;52.952;6.790;2024-03-02T01:03:49;5.67;;;4.57;;
58412;SDS011;44209;52.952;6.790;2024-03-02T01:06:18;6.53;;;4.77;;
58412;SDS011;44209;52.952;6.790;2024-03-02T01:08:44;5.80;;;4.90;;
58412;SDS011;44209;52.952;6.790;2024-03-02T01:11:10;5.60;;;4.87;;
58412;SDS011;44209;52.952;6.790;2024-03-02T01:13:36;6.33;;;4.67;;
58412;SDS011;44209;52.952;6.790;2024-03-02T01:16:02;6.20;;;4.50;;
58412;SDS011;44209;52.952;6.790;2024-03-02T01:18:28;6.17;;;4.57;;
58412;SDS011;44209;52.952;6.790;2024-03-02T01:20:53;5.33;;;4.60;;
58412;SDS011;44209;52.952;6.790;2024-03-02T01:23:23;5.67;;;4.80;;
58412;SDS011;44209;52.952;6.790;2024-03-02T01:25:49;6.20;;;4.60;;
58412;SDS011;44209;52.952;6.790;2024-03-02T01:28:16;8.07;;;5.23;;
58412;SDS011;44209;52.952;6.790;2024-03-02T01:30:42;5.07;;;4.57;;
58412;SDS011;44209;52.952;6.790;2024-03-02T01:33:08;5.63;;;4.63;;
58412;SDS011;44209;52.952;6.790;2024-03-02T01:35:33;5.90;;;4.83;;
58412;SDS011;44209;52.952;6.790;2024-03-02T01:38:00;6.57;;;4.63;;
58412;SDS011;44209;52.952;6.790;2024-03-02T01:40:26;5.83;;;4.90;;
58412;SDS011;44209;52.952;6.790;2024-03-02T01:42:52;6.23;;;4.87;;
58412;SDS011;44209;52.952;6.790;2024-03-02T01:45:23;5.97;;;4.30;;
58412;SDS011;44209;52.952;6.790;2024-03-02T01:47:48;5.10;;;4.60;;
58412;SDS011;44209;52.952;6.790;2024-03-02T01:50:14;5.50;;;4.77;;
58412;SDS011;44209;52.952;6.790;2024-03-02T01:52:40;7.40;;;5.03;;
58412;SDS011;44209;52.952;6.790;2024-03-02T01:55:06;6.37;;;4.47;;
58412;SDS011;44209;52.952;6.790;2024-03-02T01:57:33;7.67;;;4.50;;
58412;SDS011;44209;52.952;6.790;2024-03-02T01:59:59;6.23;;;4.57;;
58412;SDS011;44209;52.952;6.790;2024-03-02T02:02:25;5.33;;;4.30;;
58412;SDS011;44209;52.952;6.790;2024-03-02T02:04:51;5.23;;;4.20;;
58412;SDS011;44209;52.952;6.790;2024-03-02T02:07:17;5.77;;;4.50;;
58412;SDS011;44209;52.952;6.790;2024-03-02T02:09:42;6.13;;;4.67;;
58412;SDS011;44209;52.952;6.790;2024-03-02T02:12:11;5.50;;;4.40;;
58412;SDS011;44209;52.952;6.790;2024-03-02T02:14:37;4.97;;;4.03;;
58412;SDS011;44209;52.952;6.790;2024-03-02T02:17:05;4.33;;;3.80;;
58412;SDS011;44209;52.952;6.790;2024-03-02T02:19:30;5.03;;;3.60;;
58412;SDS011;44209;52.952;6.790;2024-03-02T02:21:56;4.87;;;3.83;;
58412;SDS011;44209;52.952;6.790;2024-03-02T02:24:22;4.43;;;3.50;;
58412;SDS011;44209;52.952;6.790;2024-03-02T02:26:47;4.03;;;3.63;;
58412;SDS011;44209;52.952;6.790;2024-03-02T02:29:13;4.10;;;3.67;;
58412;SDS011;44209;52.952;6.790;2024-03-02T02:31:39;4.53;;;3.80;;
58412;SDS011;44209;52.952;6.790;2024-03-02T02:34:06;4.00;;;3.53;;
58412;SDS011;44209;52.952;6.790;2024-03-02T02:36:36;4.60;;;3.43;;
58412;SDS011;44209;52.952;6.790;2024-03-02T02:39:04;4.30;;;3.47;;
58412;SDS011;44209;52.952;6.790;2024-03-02T02:41:32;5.10;;;3.40;;
58412;SDS011;44209;52.952;6.790;2024-03-02T02:43:58;4.73;;;3.60;;
58412;SDS011;44209;52.952;6.790;2024-03-02T02:46:24;3.90;;;3.53;;
58412;SDS011;44209;52.952;6.790;2024-03-02T02:48:49;4.53;;;3.50;;
58412;SDS011;44209;52.952;6.790;2024-03-02T02:51:16;3.93;;;3.10;;
58412;SDS011;44209;52.952;6.790;2024-03-02T02:53:42;4.53;;;3.33;;
58412;SDS011;44209;52.952;6.790;2024-03-02T02:56:08;3.53;;;3.20;;
58412;SDS011;44209;52.952;6.790;2024-03-02T02:58:34;6.60;;;3.43;;
58412;SDS011;44209;52.952;6.790;2024-03-02T03:01:00;4.10;;;3.50;;
58412;SDS011;44209;52.952;6.790;2024-03-02T03:03:26;5.07;;;3.50;;
58412;SDS011;44209;52.952;6.790;2024-03-02T03:05:52;5.13;;;3.10;;
58412;SDS011;44209;52.952;6.790;2024-03-02T03:08:17;3.30;;;2.70;;
58412;SDS011;44209;52.952;6.790;2024-03-02T03:10:43;3.50;;;3.10;;
58412;SDS011;44209;52.952;6.790;2024-03-02T03:13:09;4.00;;;2.93;;
58412;SDS011;44209;52.952;6.790;2024-03-02T03:15:35;4.10;;;3.27;;
58412;SDS011;44209;52.952;6.790;2024-03-02T03:18:02;4.17;;;3.47;;
58412;SDS011;44209;52.952;6.790;2024-03-02T03:20:30;3.90;;;2.87;;
58412;SDS011;44209;52.952;6.790;2024-03-02T03:22:56;3.43;;;2.90;;
58412;SDS011;44209;52.952;6.790;2024-03-02T03:25:22;4.90;;;3.17;;
58412;SDS011;44209;52.952;6.790;2024-03-02T03:27:48;3.63;;;2.83;;
58412;SDS011;44209;52.952;6.790;2024-03-02T03:30:14;4.87;;;3.00;;
58412;SDS011;44209;52.952;6.790;2024-03-02T03:32:40;4.43;;;3.00;;
58412;SDS011;44209;52.952;6.790;2024-03-02T03:35:06;4.63;;;3.20;;
58412;SDS011;44209;52.952;6.790;2024-03-02T03:37:32;4.40;;;3.20;;
58412;SDS011;44209;52.952;6.790;2024-03-02T03:40:01;4.13;;;2.97;;
58412;SDS011;44209;52.952;6.790;2024-03-02T03:42:28;3.33;;;2.90;;
58412;SDS011;44209;52.952;6.790;2024-03-02T03:44:53;4.17;;;3.30;;
58412;SDS011;44209;52.952;6.790;2024-03-02T03:47:19;5.40;;;3.40;;
58412;SDS011;44209;52.952;6.790;2024-03-02T03:49:45;4.87;;;3.50;;
58412;SDS011;44209;52.952;6.790;2024-03-02T03:52:11;4.10;;;3.10;;
58412;SDS011;44209;52.952;6.790;2024-03-02T03:54:37;3.93;;;3.10;;
58412;SDS011;44209;52.952;6.790;2024-03-02T03:57:03;3.40;;;3.10;;
58412;SDS011;44209;52.952;6.790;2024-03-02T03:59:29;3.67;;;3.27;;
58412;SDS011;44209;52.952;6.790;2024-03-02T04:01:55;4.00;;;3.17;;
58412;SDS011;44209;52.952;6.790;2024-03-02T04:04:21;4.03;;;3.30;;
58412;SDS011;44209;52.952;6.790;2024-03-02T04:06:47;3.70;;;3.17;;
58412;SDS011;44209;52.952;6.790;2024-03-02T04:09:13;4.43;;;3.00;;
58412;SDS011;44209;52.952;6.790;2024-03-02T04:11:38;4.50;;;3.43;;
58412;SDS011;44209;52.952;6.790;2024-03-02T04:14:04;2.83;;;2.63;;
58412;SDS011;44209;52.952;6.790;2024-03-02T04:16:31;5.30;;;3.20;;
58412;SDS011;44209;52.952;6.790;2024-03-02T04:18:57;3.57;;;3.20;;
58412;SDS011;44209;52.952;6.790;2024-03-02T04:21:22;4.07;;;3.30;;
58412;SDS011;44209;52.952;6.790;2024-03-02T04:23:48;5.33;;;3.47;;
58412;SDS011;44209;52.952;6.790;2024-03-02T04:26:14;3.43;;;3.10;;
58412;SDS011;44209;52.952;6.790;2024-03-02T04:28:44;4.47;;;3.33;;
58412;SDS011;44209;52.952;6.790;2024-03-02T04:31:10;3.80;;;3.23;;
58412;SDS011;44209;52.952;6.790;2024-03-02T04:33:36;4.63;;;3.43;;
58412;SDS011;44209;52.952;6.790;2024-03-02T04:36:01;3.70;;;3.10;;
58412;SDS011;44209;52.952;6.790;2024-03-02T04:38:27;3.53;;;3.20;;
58412;SDS011;44209;52.952;6.790;2024-03-02T04:40:53;3.97;;;3.33;;
58412;SDS011;44209;52.952;6.790;2024-03-02T04:43:19;4.07;;;3.10;;
58412;SDS011;44209;52.952;6.790;2024-03-02T04:45:45;4.73;;;3.20;;
58412;SDS011;44209;52.952;6.790;2024-03-02T04:48:11;4.53;;;3.10;;
58412;SDS011;44209;52.952;6.790;2024-03-02T04:50:36;4.90;;;3.10;;
58412;SDS011;44209;52.952;6.790;2024-03-02T04:53:02;4.30;;;3.20;;
58412;SDS011;44209;52.952;6.790;2024-03-02T04:55:28;5.13;;;3.57;;
58412;SDS011;44209;52.952;6.790;2024-03-02T04:57:54;4.17;;;3.20;;
58412;SDS011;44209;52.952;6.790;2024-03-02T05:00:20;4.37;;;3.40;;
58412;SDS011;44209;52.952;6.790;2024-03-02T05:02:46;5.73;;;3.53;;
58412;SDS011;44209;52.952;6.790;2024-03-02T05:05:12;3.67;;;3.37;;
58412;SDS011;44209;52.952;6.790;2024-03-02T05:07:37;3.83;;;3.40;;
58412;SDS011;44209;52.952;6.790;2024-03-02T05:10:03;4.70;;;3.07;;
58412;SDS011;44209;52.952;6.790;2024-03-02T05:12:29;4.90;;;3.37;;
58412;SDS011;44209;52.952;6.790;2024-03-02T05:15:10;5.03;;;3.50;;
58412;SDS011;44209;52.952;6.790;2024-03-02T05:17:39;4.17;;;3.07;;
58412;SDS011;44209;52.952;6.790;2024-03-02T05:20:08;5.27;;;3.80;;
58412;SDS011;44209;52.952;6.790;2024-03-02T05:22:34;4.83;;;3.50;;
58412;SDS011;44209;52.952;6.790;2024-03-02T05:25:01;5.50;;;3.60;;
58412;SDS011;44209;52.952;6.790;2024-03-02T05:27:27;4.93;;;3.63;;
58412;SDS011;44209;52.952;6.790;2024-03-02T05:29:53;5.97;;;3.90;;
58412;SDS011;44209;52.952;6.790;2024-03-02T05:32:19;4.13;;;3.47;;
58412;SDS011;44209;52.952;6.790;2024-03-02T05:34:44;4.17;;;3.70;;
58412;SDS011;44209;52.952;6.790;2024-03-02T05:37:10;4.63;;;3.50;;
58412;SDS011;44209;52.952;6.790;2024-03-02T05:39:36;4.43;;;3.53;;
58412;SDS011;44209;52.952;6.790;2024-03-02T05:42:02;4.80;;;3.73;;
58412;SDS011;44209;52.952;6.790;2024-03-02T05:44:28;3.90;;;3.40;;
58412;SDS011;44209;52.952;6.790;2024-03-02T05:46:54;5.60;;;3.90;;
58412;SDS011;44209;52.952;6.790;2024-03-02T05:49:20;5.00;;;3.60;;
58412;SDS011;44209;52.952;6.790;2024-03-02T05:51:46;4.93;;;3.57;;
58412;SDS011;44209;52.952;6.790;2024-03-02T05:54:11;4.63;;;3.97;;
58412;SDS011;44209;52.952;6.790;2024-03-02T05:56:37;4.20;;;3.50;;
58412;SDS011;44209;52.952;6.790;2024-03-02T05:59:03;4.77;;;3.90;;
58412;SDS011;44209;52.952;6.790;2024-03-02T06:01:47;5.47;;;3.97;;
58412;SDS011;44209;52.952;6.790;2024-03-02T06:04:15;5.30;;;4.10;;
58412;SDS011;44209;52.952;6.790;2024-03-02T06:06:41;5.67;;;4.10;;
58412;SDS011;44209;52.952;6.790;2024-03-02T06:09:07;6.03;;;4.10;;
58412;SDS011;44209;52.952;6.790;2024-03-02T06:11:37;4.27;;;3.77;;
58412;SDS011;44209;52.952;6.790;2024-03-02T06:14:03;7.47;;;4.40;;
58412;SDS011;44209;52.952;6.790;2024-03-02T06:16:31;6.40;;;3.87;;
58412;SDS011;44209;52.952;6.790;2024-03-02T06:18:57;4.70;;;3.40;;
58412;SDS011;44209;52.952;6.790;2024-03-02T06:21:32;5.83;;;4.67;;
58412;SDS011;44209;52.952;6.790;2024-03-02T06:23:58;5.57;;;4.07;;
58412;SDS011;44209;52.952;6.790;2024-03-02T06:26:24;4.20;;;3.80;;
58412;SDS011;44209;52.952;6.790;2024-03-02T06:28:49;5.90;;;3.80;;
58412;SDS011;44209;52.952;6.790;2024-03-02T06:31:15;5.87;;;4.27;;
58412;SDS011;44209;52.952;6.790;2024-03-02T06:33:41;4.70;;;4.00;;
58412;SDS011;44209;52.952;6.790;2024-03-02T06:36:07;5.40;;;3.83;;
58412;SDS011;44209;52.952;6.790;2024-03-02T06:38:36;5.03;;;3.60;;
58412;SDS011;44209;52.952;6.790;2024-03-02T06:41:02;5.60;;;4.67;;
58412;SDS011;44209;52.952;6.790;2024-03-02T06:43:28;4.90;;;4.40;;
58412;SDS011;44209;52.952;6.790;2024-03-02T06:45:54;5.80;;;4.63;;
58412;SDS011;44209;52.952;6.790;2024-03-02T06:48:19;4.60;;;4.20;;
58412;SDS011;44209;52.952;6.790;2024-03-02T06:50:49;5.67;;;4.30;;
58412;SDS011;44209;52.952;6.790;2024-03-02T06:53:15;5.53;;;4.37;;
58412;SDS011;44209;52.952;6.790;2024-03-02T06:55:45;5.70;;;4.03;;
58412;SDS011;44209;52.952;6.790;2024-03-02T06:58:11;5.83;;;4.70;;
58412;SDS011;44209;52.952;6.790;2024-03-02T07:00:38;5.20;;;4.10;;
58412;SDS011;44209;52.952;6.790;2024-03-02T07:03:03;4.83;;;4.07;;
58412;SDS011;44209;52.952;6.790;2024-03-02T07:05:29;6.50;;;4.40;;
58412;SDS011;44209;52.952;6.790;2024-03-02T07:07:55;6.07;;;4.57;;
58412;SDS011;44209;52.952;6.790;2024-03-02T07:10:21;6.13;;;4.30;;
58412;SDS011;44209;52.952;6.790;2024-03-02T07:12:46;4.93;;;3.97;;
58412;SDS011;44209;52.952;6.790;2024-03-02T07:15:12;4.20;;;3.73;;
58412;SDS011;44209;52.952;6.790;2024-03-02T07:17:55;4.30;;;3.70;;
58412;SDS011;44209;52.952;6.790;2024-03-02T07:20:21;4.57;;;3.80;;
58412;SDS011;44209;52.952;6.790;2024-03-02T07:22:46;4.43;;;3.83;;
58412;SDS011;44209;52.952;6.790;2024-03-02T07:25:12;5.60;;;3.93;;
58412;SDS011;44209;52.952;6.790;2024-03-02T07:27:38;4.20;;;3.80;;
58412;SDS011;44209;52.952;6.790;2024-03-02T07:30:05;4.17;;;3.63;;
58412;SDS011;44209;52.952;6.790;2024-03-02T07:32:31;4.50;;;3.27;;
58412;SDS011;44209;52.952;6.790;2024-03-02T07:34:57;3.87;;;3.27;;
58412;SDS011;44209;52.952;6.790;2024-03-02T07:37:23;4.47;;;3.43;;
58412;SDS011;44209;52.952;6.790;2024-03-02T07:39:49;4.23;;;3.17;;
58412;SDS011;44209;52.952;6.790;2024-03-02T07:42:15;3.47;;;2.93;;
58412;SDS011;44209;52.952;6.790;2024-03-02T07:44:41;4.50;;;3.27;;
58412;SDS011;44209;52.952;6.790;2024-03-02T07:47:09;5.17;;;3.13;;
58412;SDS011;44209;52.952;6.790;2024-03-02T07:49:34;5.60;;;3.50;;
58412;SDS011;44209;52.952;6.790;2024-03-02T07:52:00;3.60;;;3.17;;
58412;SDS011;44209;52.952;6.790;2024-03-02T07:54:26;4.20;;;3.03;;
58412;SDS011;44209;52.952;6.790;2024-03-02T07:56:51;3.40;;;3.10;;
58412;SDS011;44209;52.952;6.790;2024-03-02T07:59:17;4.37;;;3.27;;
58412;SDS011;44209;52.952;6.790;2024-03-02T08:01:43;5.97;;;3.23;;
58412;SDS011;44209;52.952;6.790;2024-03-02T08:04:09;7.77;;;3.57;;
58412;SDS011;44209;52.952;6.790;2024-03-02T08:06:35;3.90;;;3.13;;
58412;SDS011;44209;52.952;6.790;2024-03-02T08:09:00;3.77;;;3.17;;
58412;SDS011;44209;52.952;6.790;2024-03-02T08:11:26;4.63;;;3.10;;
58412;SDS011;44209;52.952;6.790;2024-03-02T08:13:52;4.23;;;3.27;;
58412;SDS011;44209;52.952;6.790;2024-03-02T08:16:20;5.40;;;3.33;;
58412;SDS011;44209;52.952;6.790;2024-03-02T08:18:50;4.50;;;3.77;;
58412;SDS011;44209;52.952;6.790;2024-03-02T08:21:16;3.90;;;2.90;;
58412;SDS011;44209;52.952;6.790;2024-03-02T08:23:42;4.37;;;3.30;;
58412;SDS011;44209;52.952;6.790;2024-03-02T08:26:09;4.60;;;3.27;;
58412;SDS011;44209;52.952;6.790;2024-03-02T08:28:35;4.00;;;3.23;;
58412;SDS011;44209;52.952;6.790;2024-03-02T08:31:05;5.60;;;2.90;;
58412;SDS011;44209;52.952;6.790;2024-03-02T08:33:32;3.20;;;2.63;;
58412;SDS011;44209;52.952;6.790;2024-03-02T08:35:58;3.50;;;2.40;;
58412;SDS011;44209;52.952;6.790;2024-03-02T08:38:24;3.30;;;2.50;;
58412;SDS011;44209;52.952;6.790;2024-03-02T08:40:50;3.10;;;2.53;;
58412;SDS011;44209;52.952;6.790;2024-03-02T08:43:15;5.57;;;2.50;;
58412;SDS011;44209;52.952;6.790;2024-03-02T08:45:42;3.33;;;2.13;;
58412;SDS011;44209;52.952;6.790;2024-03-02T08:48:08;3.30;;;2.30;;
58412;SDS011;44209;52.952;6.790;2024-03-02T08:50:34;5.97;;;2.87;;
58412;SDS011;44209;52.952;6.790;2024-03-02T08:53:00;5.37;;;2.47;;
58412;SDS011;44209;52.952;6.790;2024-03-02T08:55:27;4.93;;;2.33;;
58412;SDS011;44209;52.952;6.790;2024-03-02T08:57:52;2.90;;;2.20;;
58412;SDS011;44209;52.952;6.790;2024-03-02T09:00:18;2.30;;;1.80;;
58412;SDS011;44209;52.952;6.790;2024-03-02T09:02:44;2.93;;;2.00;;
58412;SDS011;44209;52.952;6.790;2024-03-02T09:05:10;2.37;;;1.70;;
58412;SDS011;44209;52.952;6.790;2024-03-02T09:07:36;2.33;;;1.60;;
58412;SDS011;44209;52.952;6.790;2024-03-02T09:10:06;1.87;;;1.30;;
58412;SDS011;44209;52.952;6.790;2024-03-02T09:12:33;2.80;;;1.50;;
58412;SDS011;44209;52.952;6.790;2024-03-02T09:15:02;4.70;;;1.70;;
58412;SDS011;44209;52.952;6.790;2024-03-02T09:17:28;3.40;;;1.40;;
58412;SDS011;44209;52.952;6.790;2024-03-02T09:19:54;2.67;;;1.33;;
58412;SDS011;44209;52.952;6.790;2024-03-02T09:22:20;2.70;;;1.50;;
58412;SDS011;44209;52.952;6.790;2024-03-02T09:24:46;3.53;;;1.77;;
58412;SDS011;44209;52.952;6.790;2024-03-02T09:27:12;2.50;;;1.50;;
58412;SDS011;44209;52.952;6.790;2024-03-02T09:29:37;1.87;;;1.40;;
58412;SDS011;44209;52.952;6.790;2024-03-02T09:32:04;3.07;;;1.40;;
58412;SDS011;44209;52.952;6.790;2024-03-02T09:34:31;2.03;;;1.40;;
58412;SDS011;44209;52.952;6.790;2024-03-02T09:36:57;3.20;;;1.33;;
58412;SDS011;44209;52.952;6.790;2024-03-02T09:39:23;1.67;;;1.30;;
58412;SDS011;44209;52.952;6.790;2024-03-02T09:41:50;1.90;;;1.03;;
58412;SDS011;44209;52.952;6.790;2024-03-02T09:44:16;3.37;;;1.20;;
58412;SDS011;44209;52.952;6.790;2024-03-02T09:46:42;2.40;;;1.20;;
58412;SDS011;44209;52.952;6.790;2024-03-02T09:49:09;2.50;;;1.23;;
58412;SDS011;44209;52.952;6.790;2024-03-02T09:51:36;2.40;;;1.40;;
58412;SDS011;44209;52.952;6.790;2024-03-02T09:54:02;2.20;;;1.40;;
58412;SDS011;44209;52.952;6.790;2024-03-02T09:56:29;3.10;;;1.80;;
58412;SDS011;44209;52.952;6.790;2024-03-02T09:58:54;3.23;;;1.60;;
58412;SDS011;44209;52.952;6.790;2024-03-02T10:01:20;2.60;;;1.57;;
58412;SDS011;44209;52.952;6.790;2024-03-02T10:03:46;1.70;;;1.23;;
58412;SDS011;44209;52.952;6.790;2024-03-02T10:06:18;1.50;;;1.20;;
58412;SDS011;44209;52.952;6.790;2024-03-02T10:08:43;2.67;;;1.33;;
58412;SDS011;44209;52.952;6.790;2024-03-02T10:11:09;1.90;;;1.67;;
58412;SDS011;44209;52.952;6.790;2024-03-02T10:13:35;3.03;;;1.50;;
58412;SDS011;44209;52.952;6.790;2024-03-02T10:16:11;2.67;;;1.67;;
58412;SDS011;44209;52.952;6.790;2024-03-02T10:18:37;3.03;;;1.60;;
58412;SDS011;44209;52.952;6.790;2024-03-02T10:21:15;2.30;;;1.60;;
58412;SDS011;44209;52.952;6.790;2024-03-02T10:23:41;2.43;;;1.80;;
58412;SDS011;44209;52.952;6.790;2024-03-02T10:26:16;3.27;;;2.10;;
58412;SDS011;44209;52.952;6.790;2024-03-02T10:28:46;3.97;;;1.97;;
58412;SDS011;44209;52.952;6.790;2024-03-02T10:31:12;2.73;;;2.10;;
58412;SDS011;44209;52.952;6.790;2024-03-02T10:33:39;2.40;;;2.07;;
58412;SDS011;44209;52.952;6.790;2024-03-02T10:36:05;2.43;;;2.13;;
58412;SDS011;44209;52.952;6.790;2024-03-02T10:38:32;3.70;;;2.37;;
58412;SDS011;44209;52.952;6.790;2024-03-02T10:40:59;2.63;;;2.10;;
58412;SDS011;44209;52.952;6.790;2024-03-02T10:43:25;3.73;;;2.60;;
58412;SDS011;44209;52.952;6.790;2024-03-02T10:45:51;2.87;;;2.17;;
58412;SDS011;44209;52.952;6.790;2024-03-02T10:48:18;3.23;;;2.33;;
58412;SDS011;44209;52.952;6.790;2024-03-02T10:50:44;4.77;;;2.47;;
58412;SDS011;44209;52.952;6.790;2024-03-02T10:53:10;4.07;;;2.60;;
58412;SDS011;44209;52.952;6.790;2024-03-02T10:55:36;3.93;;;2.50;;
58412;SDS011;44209;52.952;6.790;2024-03-02T10:58:02;3.43;;;2.77;;
58412;SDS011;44209;52.952;6.790;2024-03-02T11:00:33;3.57;;;2.70;;
58412;SDS011;44209;52.952;6.790;2024-03-02T11:03:06;4.47;;;2.72;;
58412;SDS011;44209;52.952;6.790;2024-03-02T11:05:39;3.87;;;2.93;;
58412;SDS011;44209;52.952;6.790;2024-03-02T11:08:08;3.83;;;3.00;;
58412;SDS011;44209;52.952;6.790;2024-03-02T11:10:50;4.70;;;3.23;;
58412;SDS011;44209;52.952;6.790;2024-03-02T11:13:18;4.37;;;3.50;;
58412;SDS011;44209;52.952;6.790;2024-03-02T11:19:10;3.83;;;3.50;;
58412;SDS011;44209;52.952;6.790;2024-03-02T11:21:37;4.43;;;3.90;;
58412;SDS011;44209;52.952;6.790;2024-03-02T11:26:49;4.17;;;2.77;;
58412;SDS011;44209;52.952;6.790;2024-03-02T11:32:15;2.63;;;2.42;;
58412;SDS011;44209;52.952;6.790;2024-03-02T11:34:43;3.22;;;2.83;;
58412;SDS011;44209;52.952;6.790;2024-03-02T11:37:14;3.92;;;3.30;;
58412;SDS011;44209;52.952;6.790;2024-03-02T11:39:42;4.40;;;3.30;;
58412;SDS011;44209;52.952;6.790;2024-03-02T11:42:09;4.40;;;3.28;;
58412;SDS011;44209;52.952;6.790;2024-03-02T11:44:39;3.60;;;3.30;;
58412;SDS011;44209;52.952;6.790;2024-03-02T11:47:08;5.63;;;3.47;;
58412;SDS011;44209;52.952;6.790;2024-03-02T11:49:39;4.72;;;3.33;;
58412;SDS011;44209;52.952;6.790;2024-03-02T11:52:09;5.53;;;3.67;;
58412;SDS011;44209;52.952;6.790;2024-03-02T11:54:37;3.73;;;3.33;;
58412;SDS011;44209;52.952;6.790;2024-03-02T11:57:11;3.38;;;2.92;;
58412;SDS011;44209;52.952;6.790;2024-03-02T11:59:39;5.63;;;3.17;;
58412;SDS011;44209;52.952;6.790;2024-03-02T12:02:05;4.93;;;3.15;;
58412;SDS011;44209;52.952;6.790;2024-03-02T12:04:31;4.13;;;3.20;;
58412;SDS011;44209;52.952;6.790;2024-03-02T12:07:00;4.30;;;3.55;;
58412;SDS011;44209;52.952;6.790;2024-03-02T12:09:30;5.15;;;4.03;;
58412;SDS011;44209;52.952;6.790;2024-03-02T12:12:05;5.07;;;3.97;;
58412;SDS011;44209;52.952;6.790;2024-03-02T12:14:38;6.38;;;4.55;;
58412;SDS011;44209;52.952;6.790;2024-03-02T12:17:04;5.55;;;5.00;;
58412;SDS011;44209;52.952;6.790;2024-03-02T12:19:31;5.30;;;4.60;;
58412;SDS011;44209;52.952;6.790;2024-03-02T12:21:58;4.93;;;4.53;;
58412;SDS011;44209;52.952;6.790;2024-03-02T12:24:27;5.15;;;4.65;;
58412;SDS011;44209;52.952;6.790;2024-03-02T12:26:53;6.30;;;4.93;;
58412;SDS011;44209;52.952;6.790;2024-03-02T12:29:20;4.82;;;4.43;;
58412;SDS011;44209;52.952;6.790;2024-03-02T12:31:49;4.90;;;4.50;;
58412;SDS011;44209;52.952;6.790;2024-03-02T12:34:16;5.05;;;4.65;;
58412;SDS011;44209;52.952;6.790;2024-03-02T12:36:43;5.70;;;4.70;;
58412;SDS011;44209;52.952;6.790;2024-03-02T12:39:12;5.25;;;4.47;;
58412;SDS011;44209;52.952;6.790;2024-03-02T12:41:38;5.18;;;4.68;;
58412;SDS011;44209;52.952;6.790;2024-03-02T12:44:05;4.78;;;4.30;;
58412;SDS011;44209;52.952;6.790;2024-03-02T12:46:31;5.18;;;4.75;;
58412;SDS011;44209;52.952;6.790;2024-03-02T12:48:58;5.72;;;4.32;;
58412;SDS011;44209;52.952;6.790;2024-03-02T12:51:26;4.72;;;4.28;;
58412;SDS011;44209;52.952;6.790;2024-03-02T12:53:53;4.57;;;4.18;;
58412;SDS011;44209;52.952;6.790;2024-03-02T12:56:20;5.18;;;4.55;;
58412;SDS011;44209;52.952;6.790;2024-03-02T12:58:46;7.80;;;4.47;;
58412;SDS011;44209;52.952;6.790;2024-03-02T13:01:14;4.90;;;4.35;;
58412;SDS011;44209;52.952;6.790;2024-03-02T13:03:43;4.50;;;4.13;;
58412;SDS011;44209;52.952;6.790;2024-03-02T13:06:09;6.63;;;4.30;;
58412;SDS011;44209;52.952;6.790;2024-03-02T13:08:35;4.45;;;3.75;;
58412;SDS011;44209;52.952;6.790;2024-03-02T13:11:01;4.50;;;4.10;;
58412;SDS011;44209;52.952;6.790;2024-03-02T13:13:30;3.97;;;3.58;;
58412;SDS011;44209;52.952;6.790;2024-03-02T13:15:56;3.30;;;3.00;;
58412;SDS011;44209;52.952;6.790;2024-03-02T13:18:22;3.67;;;3.35;;
58412;SDS011;44209;52.952;6.790;2024-03-02T13:20:49;3.38;;;3.08;;
58412;SDS011;44209;52.952;6.790;2024-03-02T13:23:15;4.70;;;3.20;;
58412;SDS011;44209;52.952;6.790;2024-03-02T13:25:40;3.65;;;2.88;;
58412;SDS011;44209;52.952;6.790;2024-03-02T13:28:06;4.47;;;3.20;;
58412;SDS011;44209;52.952;6.790;2024-03-02T13:30:32;4.40;;;3.08;;
58412;SDS011;44209;52.952;6.790;2024-03-02T13:32:58;3.85;;;2.63;;
58412;SDS011;44209;52.952;6.790;2024-03-02T13:35:24;3.72;;;2.88;;
58412;SDS011;44209;52.952;6.790;2024-03-02T13:37:49;2.70;;;2.50;;
58412;SDS011;44209;52.952;6.790;2024-03-02T13:40:15;3.05;;;2.05;;
58412;SDS011;44209;52.952;6.790;2024-03-02T13:42:48;2.88;;;1.85;;
58412;SDS011;44209;52.952;6.790;2024-03-02T13:45:14;2.15;;;1.95;;
58412;SDS011;44209;52.952;6.790;2024-03-02T13:47:40;2.10;;;1.77;;
58412;SDS011;44209;52.952;6.790;2024-03-02T13:50:07;3.10;;;1.63;;
58412;SDS011;44209;52.952;6.790;2024-03-02T13:52:33;2.17;;;1.30;;
58412;SDS011;44209;52.952;6.790;2024-03-02T13:54:58;2.33;;;1.17;;
58412;SDS011;44209;52.952;6.790;2024-03-02T13:57:24;2.80;;;1.27;;
58412;SDS011;44209;52.952;6.790;2024-03-02T13:59:50;2.33;;;1.50;;
58412;SDS011;44209;52.952;6.790;2024-03-02T14:02:17;4.60;;;1.35;;
58412;SDS011;44209;52.952;6.790;2024-03-02T14:04:43;1.92;;;1.30;;
58412;SDS011;44209;52.952;6.790;2024-03-02T14:07:09;4.32;;;1.48;;
58412;SDS011;44209;52.952;6.790;2024-03-02T14:09:37;1.80;;;1.20;;
58412;SDS011;44209;52.952;6.790;2024-03-02T14:12:04;2.58;;;1.33;;
58412;SDS011;44209;52.952;6.790;2024-03-02T14:14:30;2.53;;;1.30;;
58412;SDS011;44209;52.952;6.790;2024-03-02T14:16:56;4.20;;;1.60;;
58412;SDS011;44209;52.952;6.790;2024-03-02T14:19:25;2.97;;;1.65;;
58412;SDS011;44209;52.952;6.790;2024-03-02T14:21:51;2.53;;;1.42;;
58412;SDS011;44209;52.952;6.790;2024-03-02T14:24:17;2.13;;;1.58;;
58412;SDS011;44209;52.952;6.790;2024-03-02T14:26:43;2.60;;;1.98;;
58412;SDS011;44209;52.952;6.790;2024-03-02T14:29:08;2.63;;;2.00;;
58412;SDS011;44209;52.952;6.790;2024-03-02T14:31:34;3.35;;;2.00;;
58412;SDS011;44209;52.952;6.790;2024-03-02T14:34:00;3.95;;;2.15;;
58412;SDS011;44209;52.952;6.790;2024-03-02T14:36:26;3.67;;;2.58;;
58412;SDS011;44209;52.952;6.790;2024-03-02T14:38:52;4.20;;;2.70;;
58412;SDS011;44209;52.952;6.790;2024-03-02T14:41:19;3.80;;;3.20;;
58412;SDS011;44209;52.952;6.790;2024-03-02T14:43:45;4.70;;;2.97;;
58412;SDS011;44209;52.952;6.790;2024-03-02T14:46:11;3.10;;;2.80;;
58412;SDS011;44209;52.952;6.790;2024-03-02T14:48:37;4.55;;;3.38;;
58412;SDS011;44209;52.952;6.790;2024-03-02T14:51:03;3.63;;;3.22;;
58412;SDS011;44209;52.952;6.790;2024-03-02T14:53:29;4.05;;;3.08;;
58412;SDS011;44209;52.952;6.790;2024-03-02T14:55:55;3.75;;;3.10;;